sensor_id;sensor_type;location;lat;lon;timestamp;pressure;altitude;pressure_sealevel;temperature;humidity
55077;BME280;40971;44.702;11.030;2023-07-13T00:07:14;101173.00;;;24.76;92.74
55077;BME280;40971;44.702;11.030;2023-07-13T00:17:16;101169.75;;;24.74;91.90
55077;BME280;40971;44.702;11.030;2023-07-13T00:27:18;101163.72;;;24.67;91.76
55077;BME280;40971;44.702;11.030;2023-07-13T00:37:19;101174.19;;;24.80;91.25
55077;BME280;40971;44.702;11.030;2023-07-13T00:47:23;101152.38;;;24.99;90.25
55077;BME280;40971;44.702;11.030;2023-07-13T00:57:24;101140.63;;;25.05;88.73
55077;BME280;40971;44.702;11.030;2023-07-13T01:07:27;101126.88;;;25.01;88.10
55077;BME280;40971;44.702;11.030;2023-07-13T01:17:33;101144.50;;;24.92;88.08
55077;BME280;40971;44.702;11.030;2023-07-13T01:27:35;101145.41;;;24.64;87.70
55077;BME280;40971;44.702;11.030;2023-07-13T01:37:36;101131.28;;;24.41;89.21
55077;BME280;40971;44.702;11.030;2023-07-13T01:47:39;101129.56;;;24.51;87.70
55077;BME280;40971;44.702;11.030;2023-07-13T01:57:40;101125.50;;;24.32;87.55
55077;BME280;40971;44.702;11.030;2023-07-13T02:07:44;101098.66;;;24.04;89.44
55077;BME280;40971;44.702;11.030;2023-07-13T02:17:46;101088.13;;;23.86;90.62
55077;BME280;40971;44.702;11.030;2023-07-13T02:27:48;101118.44;;;23.98;90.25
55077;BME280;40971;44.702;11.030;2023-07-13T02:37:50;101130.22;;;23.68;93.30
55077;BME280;40971;44.702;11.030;2023-07-13T02:47:51;101119.78;;;23.55;93.11
55077;BME280;40971;44.702;11.030;2023-07-13T02:57:55;101127.38;;;23.58;93.46
55077;BME280;40971;44.702;11.030;2023-07-13T03:07:56;101135.78;;;23.78;90.56
55077;BME280;40971;44.702;11.030;2023-07-13T03:17:57;101117.38;;;23.70;90.75
55077;BME280;40971;44.702;11.030;2023-07-13T03:28:02;101114.56;;;23.77;90.11
55077;BME280;40971;44.702;11.030;2023-07-13T03:38:04;101107.03;;;23.62;89.31
55077;BME280;40971;44.702;11.030;2023-07-13T03:48:06;101124.47;;;23.76;89.14
55077;BME280;40971;44.702;11.030;2023-07-13T03:58:30;101130.91;;;23.47;89.97
55077;BME280;40971;44.702;11.030;2023-07-13T04:08:34;101135.63;;;23.57;89.59
55077;BME280;40971;44.702;11.030;2023-07-13T04:18:36;101128.03;;;22.91;90.31
55077;BME280;40971;44.702;11.030;2023-07-13T04:28:37;101176.38;;;22.73;85.32
55077;BME280;40971;44.702;11.030;2023-07-13T04:38:39;101194.47;;;23.00;81.96
55077;BME280;40971;44.702;11.030;2023-07-13T04:48:43;101197.75;;;22.91;79.63
55077;BME280;40971;44.702;11.030;2023-07-13T04:58:44;101169.56;;;22.58;80.00
55077;BME280;40971;44.702;11.030;2023-07-13T05:08:47;101189.53;;;22.62;78.38
55077;BME280;40971;44.702;11.030;2023-07-13T05:18:49;101181.31;;;22.87;77.80
55077;BME280;40971;44.702;11.030;2023-07-13T05:28:51;101203.72;;;23.39;74.07
55077;BME280;40971;44.702;11.030;2023-07-13T05:38:53;101186.53;;;23.29;74.83
55077;BME280;40971;44.702;11.030;2023-07-13T05:48:56;101189.69;;;23.37;74.80
55077;BME280;40971;44.702;11.030;2023-07-13T05:58:58;101199.03;;;23.46;73.07
55077;BME280;40971;44.702;11.030;2023-07-13T06:09:00;101216.28;;;24.13;72.25
55077;BME280;40971;44.702;11.030;2023-07-13T06:19:02;101216.34;;;24.47;69.43
55077;BME280;40971;44.702;11.030;2023-07-13T06:29:04;101207.41;;;24.74;68.49
55077;BME280;40971;44.702;11.030;2023-07-13T06:39:07;101194.78;;;24.58;69.54
55077;BME280;40971;44.702;11.030;2023-07-13T06:49:10;101225.22;;;25.47;69.84
55077;BME280;40971;44.702;11.030;2023-07-13T06:59:11;101218.25;;;26.38;63.98
55077;BME280;40971;44.702;11.030;2023-07-13T07:09:12;101221.69;;;26.60;64.27
55077;BME280;40971;44.702;11.030;2023-07-13T07:19:16;101212.03;;;26.37;65.91
55077;BME280;40971;44.702;11.030;2023-07-13T07:29:17;101208.56;;;26.42;66.85
55077;BME280;40971;44.702;11.030;2023-07-13T07:39:19;101247.88;;;25.89;70.42
55077;BME280;40971;44.702;11.030;2023-07-13T07:49:20;101238.22;;;25.72;70.53
55077;BME280;40971;44.702;11.030;2023-07-13T07:59:23;101192.19;;;25.35;68.36
55077;BME280;40971;44.702;11.030;2023-07-13T08:09:26;101187.53;;;24.75;71.58
55077;BME280;40971;44.702;11.030;2023-07-13T08:19:29;101192.66;;;24.94;72.39
55077;BME280;40971;44.702;11.030;2023-07-13T08:29:32;101186.53;;;24.48;72.72
55077;BME280;40971;44.702;11.030;2023-07-13T08:39:33;101200.22;;;24.63;75.35
55077;BME280;40971;44.702;11.030;2023-07-13T08:49:36;101261.38;;;24.00;78.17
55077;BME280;40971;44.702;11.030;2023-07-13T08:59:43;101266.34;;;23.56;82.37
55077;BME280;40971;44.702;11.030;2023-07-13T09:20:23;101195.75;;;23.09;82.20
55077;BME280;40971;44.702;11.030;2023-07-13T09:30:34;101219.31;;;22.84;85.85
55077;BME280;40971;44.702;11.030;2023-07-13T09:41:19;101334.06;;;22.94;86.39
55077;BME280;40971;44.702;11.030;2023-07-13T09:51:23;101301.22;;;22.69;87.30
55077;BME280;40971;44.702;11.030;2023-07-13T10:01:36;101313.34;;;23.24;85.46
55077;BME280;40971;44.702;11.030;2023-07-13T10:11:39;101302.25;;;23.90;83.14
55077;BME280;40971;44.702;11.030;2023-07-13T10:22:02;101306.91;;;25.03;77.42
55077;BME280;40971;44.702;11.030;2023-07-13T10:32:14;101296.28;;;26.49;69.53
55077;BME280;40971;44.702;11.030;2023-07-13T10:42:33;101304.34;;;27.71;69.14
55077;BME280;40971;44.702;11.030;2023-07-13T10:52:44;101297.13;;;27.87;67.06
55077;BME280;40971;44.702;11.030;2023-07-13T11:02:59;101286.31;;;27.87;66.42
55077;BME280;40971;44.702;11.030;2023-07-13T11:23:42;101259.88;;;27.99;64.21
55077;BME280;40971;44.702;11.030;2023-07-13T11:33:53;101245.63;;;30.68;57.55
55077;BME280;40971;44.702;11.030;2023-07-13T11:44:06;101238.16;;;30.84;54.62
55077;BME280;40971;44.702;11.030;2023-07-13T12:04:29;101210.16;;;31.64;53.35
55077;BME280;40971;44.702;11.030;2023-07-13T12:14:34;101209.44;;;31.78;52.00
55077;BME280;40971;44.702;11.030;2023-07-13T12:24:40;101176.81;;;31.78;51.90
55077;BME280;40971;44.702;11.030;2023-07-13T12:34:53;101184.13;;;32.19;50.60
55077;BME280;40971;44.702;11.030;2023-07-13T12:45:17;101174.44;;;32.64;52.05
55077;BME280;40971;44.702;11.030;2023-07-13T12:55:21;101163.44;;;33.29;51.63
55077;BME280;40971;44.702;11.030;2023-07-13T13:05:27;101142.16;;;34.38;47.02
55077;BME280;40971;44.702;11.030;2023-07-13T13:15:28;101138.34;;;33.54;48.35
55077;BME280;40971;44.702;11.030;2023-07-13T13:25:32;101127.69;;;33.58;48.81
55077;BME280;40971;44.702;11.030;2023-07-13T13:35:33;101102.97;;;33.98;48.28
55077;BME280;40971;44.702;11.030;2023-07-13T13:45:34;101100.91;;;33.60;53.44
55077;BME280;40971;44.702;11.030;2023-07-13T13:55:36;101094.28;;;34.63;43.23
55077;BME280;40971;44.702;11.030;2023-07-13T14:05:40;101101.13;;;33.85;43.39
55077;BME280;40971;44.702;11.030;2023-07-13T14:15:45;101116.63;;;34.65;43.01
55077;BME280;40971;44.702;11.030;2023-07-13T14:25:47;101119.53;;;34.69;45.69
55077;BME280;40971;44.702;11.030;2023-07-13T14:35:49;101113.41;;;32.65;49.20
55077;BME280;40971;44.702;11.030;2023-07-13T14:45:52;101103.03;;;33.49;45.49
55077;BME280;40971;44.702;11.030;2023-07-13T14:55:58;101111.75;;;33.24;44.99
55077;BME280;40971;44.702;11.030;2023-07-13T15:05:59;101106.44;;;33.55;46.72
55077;BME280;40971;44.702;11.030;2023-07-13T15:16:01;101128.53;;;34.16;48.74
55077;BME280;40971;44.702;11.030;2023-07-13T15:26:02;101143.09;;;34.34;47.80
55077;BME280;40971;44.702;11.030;2023-07-13T15:36:05;101139.16;;;34.04;46.07
55077;BME280;40971;44.702;11.030;2023-07-13T15:46:08;101128.84;;;34.01;46.29
55077;BME280;40971;44.702;11.030;2023-07-13T15:56:20;101149.88;;;32.18;48.66
55077;BME280;40971;44.702;11.030;2023-07-13T16:06:29;101147.38;;;32.03;50.04
55077;BME280;40971;44.702;11.030;2023-07-13T16:16:34;101143.38;;;31.96;49.72
55077;BME280;40971;44.702;11.030;2023-07-13T16:26:37;101143.47;;;32.09;51.82
55077;BME280;40971;44.702;11.030;2023-07-13T16:36:41;101144.56;;;31.90;50.71
55077;BME280;40971;44.702;11.030;2023-07-13T16:46:48;101146.22;;;31.01;52.20
55077;BME280;40971;44.702;11.030;2023-07-13T16:56:51;101145.00;;;31.59;52.12
55077;BME280;40971;44.702;11.030;2023-07-13T17:06:53;101138.53;;;32.11;49.37
55077;BME280;40971;44.702;11.030;2023-07-13T17:16:56;101131.66;;;32.65;52.57
55077;BME280;40971;44.702;11.030;2023-07-13T17:27:00;101130.53;;;32.34;51.11
55077;BME280;40971;44.702;11.030;2023-07-13T17:37:01;101111.25;;;31.98;50.66
55077;BME280;40971;44.702;11.030;2023-07-13T17:47:24;101119.13;;;31.62;55.09
55077;BME280;40971;44.702;11.030;2023-07-13T17:57:27;101111.28;;;31.37;55.72
55077;BME280;40971;44.702;11.030;2023-07-13T18:07:30;101129.84;;;31.06;62.85
55077;BME280;40971;44.702;11.030;2023-07-13T18:17:33;101127.94;;;30.54;66.90
55077;BME280;40971;44.702;11.030;2023-07-13T18:27:37;101127.53;;;29.98;69.31
55077;BME280;40971;44.702;11.030;2023-07-13T18:37:41;101139.34;;;28.89;67.46
55077;BME280;40971;44.702;11.030;2023-07-13T18:47:51;101137.19;;;28.25;68.02
55077;BME280;40971;44.702;11.030;2023-07-13T18:57:55;101144.94;;;27.82;75.01
55077;BME280;40971;44.702;11.030;2023-07-13T19:08:00;101158.53;;;27.35;77.23
55077;BME280;40971;44.702;11.030;2023-07-13T19:18:12;101180.69;;;26.95;79.45
55077;BME280;40971;44.702;11.030;2023-07-13T19:28:30;101215.47;;;26.91;78.13
55077;BME280;40971;44.702;11.030;2023-07-13T19:38:34;101210.63;;;26.30;80.73
55077;BME280;40971;44.702;11.030;2023-07-13T19:48:35;101227.44;;;26.15;81.45
55077;BME280;40971;44.702;11.030;2023-07-13T19:58:36;101253.25;;;25.89;81.86
55077;BME280;40971;44.702;11.030;2023-07-13T20:08:38;101266.00;;;25.56;82.98
55077;BME280;40971;44.702;11.030;2023-07-13T20:18:42;101265.63;;;25.47;83.65
55077;BME280;40971;44.702;11.030;2023-07-13T20:28:44;101285.63;;;25.18;84.66
55077;BME280;40971;44.702;11.030;2023-07-13T20:38:45;101299.16;;;25.23;84.75
55077;BME280;40971;44.702;11.030;2023-07-13T20:48:49;101290.66;;;24.98;84.91
55077;BME280;40971;44.702;11.030;2023-07-13T20:58:52;101313.84;;;24.70;86.37
55077;BME280;40971;44.702;11.030;2023-07-13T21:08:56;101308.09;;;24.50;87.10
55077;BME280;40971;44.702;11.030;2023-07-13T21:18:59;101322.63;;;24.66;83.44
55077;BME280;40971;44.702;11.030;2023-07-13T21:29:01;101341.09;;;24.34;86.84
55077;BME280;40971;44.702;11.030;2023-07-13T21:39:05;101341.84;;;24.18;87.43
55077;BME280;40971;44.702;11.030;2023-07-13T21:49:08;101361.91;;;24.04;88.37
55077;BME280;40971;44.702;11.030;2023-07-13T21:59:26;101361.84;;;24.10;85.27
55077;BME280;40971;44.702;11.030;2023-07-13T22:09:28;101385.91;;;24.17;83.71
55077;BME280;40971;44.702;11.030;2023-07-13T22:19:32;101397.91;;;24.26;82.52
55077;BME280;40971;44.702;11.030;2023-07-13T22:29:35;101405.38;;;24.24;82.65
55077;BME280;40971;44.702;11.030;2023-07-13T22:39:37;101410.66;;;23.84;84.68
55077;BME280;40971;44.702;11.030;2023-07-13T22:49:40;101413.53;;;23.59;87.89
55077;BME280;40971;44.702;11.030;2023-07-13T22:59:42;101417.97;;;23.65;87.49
55077;BME280;40971;44.702;11.030;2023-07-13T23:09:43;101398.84;;;23.73;86.52
55077;BME280;40971;44.702;11.030;2023-07-13T23:19:46;101405.84;;;23.74;85.50
55077;BME280;40971;44.702;11.030;2023-07-13T23:29:50;101410.75;;;23.77;85.26
55077;BME280;40971;44.702;11.030;2023-07-13T23:39:52;101400.84;;;23.25;87.78
55077;BME280;40971;44.702;11.030;2023-07-13T23:49:55;101407.16;;;23.01;87.24
55077;BME280;40971;44.702;11.030;2023-07-13T23:59:57;101400.84;;;22.95;87.76
